sensor_id;sensor_type;location;lat;lon;timestamp;P1;durP1;ratioP1;P2;durP2;ratioP2
42134;SDS011;28312;43.460;11.810;2024-03-23T00:54:10;5.60;;;3.35;;
42134;SDS011;28312;43.460;11.810;2024-03-23T00:58:13;6.70;;;4.57;;
42134;SDS011;28312;43.460;11.810;2024-03-23T01:02:16;6.13;;;4.35;;
42134;SDS011;28312;43.460;11.810;2024-03-23T01:06:18;4.38;;;2.72;;
42134;SDS011;28312;43.460;11.810;2024-03-23T01:10:21;6.20;;;4.00;;
42134;SDS011;28312;43.460;11.810;2024-03-23T01:14:24;5.03;;;3.10;;
42134;SDS011;28312;43.460;11.810;2024-03-23T01:18:26;6.10;;;3.15;;
42134;SDS011;28312;43.460;11.810;2024-03-23T01:22:29;7.22;;;4.65;;
42134;SDS011;28312;43.460;11.810;2024-03-23T01:26:31;5.78;;;4.03;;
42134;SDS011;28312;43.460;11.810;2024-03-23T01:30:34;4.97;;;3.42;;
42134;SDS011;28312;43.460;11.810;2024-03-23T01:34:37;4.82;;;3.15;;
42134;SDS011;28312;43.460;11.810;2024-03-23T01:38:39;5.80;;;4.97;;
42134;SDS011;28312;43.460;11.810;2024-03-23T01:47:12;6.80;;;4.57;;
42134;SDS011;28312;43.460;11.810;2024-03-23T01:51:14;4.40;;;2.80;;
42134;SDS011;28312;43.460;11.810;2024-03-23T01:55:17;6.00;;;3.65;;
42134;SDS011;28312;43.460;11.810;2024-03-23T01:59:20;5.20;;;4.60;;
42134;SDS011;28312;43.460;11.810;2024-03-23T02:07:27;4.53;;;3.22;;
42134;SDS011;28312;43.460;11.810;2024-03-23T02:11:30;5.88;;;3.55;;
42134;SDS011;28312;43.460;11.810;2024-03-23T02:15:32;8.23;;;4.13;;
42134;SDS011;28312;43.460;11.810;2024-03-23T02:19:35;8.05;;;3.85;;
42134;SDS011;28312;43.460;11.810;2024-03-23T02:23:37;4.85;;;2.92;;
42134;SDS011;28312;43.460;11.810;2024-03-23T02:27:40;5.28;;;3.53;;
42134;SDS011;28312;43.460;11.810;2024-03-23T02:31:42;4.95;;;3.88;;
42134;SDS011;28312;43.460;11.810;2024-03-23T02:35:45;8.00;;;5.45;;
42134;SDS011;28312;43.460;11.810;2024-03-23T02:39:47;5.82;;;3.88;;
42134;SDS011;28312;43.460;11.810;2024-03-23T02:43:50;7.95;;;5.50;;
42134;SDS011;28312;43.460;11.810;2024-03-23T02:47:53;4.93;;;3.88;;
42134;SDS011;28312;43.460;11.810;2024-03-23T02:51:55;5.47;;;4.00;;
42134;SDS011;28312;43.460;11.810;2024-03-23T02:55:58;8.60;;;4.20;;
42134;SDS011;28312;43.460;11.810;2024-03-23T03:00:00;4.20;;;3.38;;
42134;SDS011;28312;43.460;11.810;2024-03-23T03:04:03;6.40;;;4.05;;
42134;SDS011;28312;43.460;11.810;2024-03-23T03:08:06;4.10;;;3.35;;
42134;SDS011;28312;43.460;11.810;2024-03-23T03:12:09;4.35;;;3.55;;
42134;SDS011;28312;43.460;11.810;2024-03-23T03:16:13;4.28;;;2.97;;
42134;SDS011;28312;43.460;11.810;2024-03-23T03:20:16;7.50;;;2.75;;
42134;SDS011;28312;43.460;11.810;2024-03-23T03:24:21;4.47;;;3.30;;
42134;SDS011;28312;43.460;11.810;2024-03-23T03:28:23;4.97;;;3.35;;
42134;SDS011;28312;43.460;11.810;2024-03-23T03:32:28;6.38;;;4.70;;
42134;SDS011;28312;43.460;11.810;2024-03-23T03:36:31;6.00;;;4.53;;
42134;SDS011;28312;43.460;11.810;2024-03-23T03:40:33;4.25;;;2.47;;
42134;SDS011;28312;43.460;11.810;2024-03-23T03:44:36;4.63;;;3.63;;
42134;SDS011;28312;43.460;11.810;2024-03-23T03:48:38;10.30;;;5.03;;
42134;SDS011;28312;43.460;11.810;2024-03-23T03:52:40;9.40;;;3.35;;
42134;SDS011;28312;43.460;11.810;2024-03-23T03:56:43;5.03;;;3.55;;
42134;SDS011;28312;43.460;11.810;2024-03-23T04:00:48;4.30;;;3.25;;
42134;SDS011;28312;43.460;11.810;2024-03-23T04:04:50;7.63;;;5.28;;
42134;SDS011;28312;43.460;11.810;2024-03-23T04:08:52;5.97;;;4.50;;
42134;SDS011;28312;43.460;11.810;2024-03-23T04:12:55;6.32;;;4.43;;
42134;SDS011;28312;43.460;11.810;2024-03-23T04:16:58;5.10;;;3.55;;
42134;SDS011;28312;43.460;11.810;2024-03-23T04:21:01;7.57;;;4.85;;
42134;SDS011;28312;43.460;11.810;2024-03-23T04:25:04;5.97;;;3.50;;
42134;SDS011;28312;43.460;11.810;2024-03-23T04:29:08;6.97;;;4.90;;
42134;SDS011;28312;43.460;11.810;2024-03-23T04:33:10;4.75;;;3.33;;
42134;SDS011;28312;43.460;11.810;2024-03-23T04:37:13;6.97;;;5.10;;
42134;SDS011;28312;43.460;11.810;2024-03-23T04:41:16;5.50;;;3.15;;
42134;SDS011;28312;43.460;11.810;2024-03-23T04:45:18;7.30;;;4.22;;
42134;SDS011;28312;43.460;11.810;2024-03-23T04:49:21;5.18;;;3.80;;
42134;SDS011;28312;43.460;11.810;2024-03-23T04:53:24;9.32;;;4.53;;
42134;SDS011;28312;43.460;11.810;2024-03-23T04:57:30;6.40;;;4.65;;
42134;SDS011;28312;43.460;11.810;2024-03-23T05:01:32;4.97;;;3.38;;
42134;SDS011;28312;43.460;11.810;2024-03-23T05:05:38;5.47;;;3.50;;
42134;SDS011;28312;43.460;11.810;2024-03-23T05:09:41;6.05;;;3.40;;
42134;SDS011;28312;43.460;11.810;2024-03-23T05:13:43;8.77;;;5.93;;
42134;SDS011;28312;43.460;11.810;2024-03-23T05:17:47;5.53;;;3.88;;
42134;SDS011;28312;43.460;11.810;2024-03-23T05:21:49;4.20;;;3.38;;
42134;SDS011;28312;43.460;11.810;2024-03-23T05:25:51;4.53;;;3.38;;
42134;SDS011;28312;43.460;11.810;2024-03-23T05:29:57;6.00;;;4.27;;
42134;SDS011;28312;43.460;11.810;2024-03-23T05:34:00;4.57;;;3.35;;
42134;SDS011;28312;43.460;11.810;2024-03-23T05:38:02;6.72;;;4.65;;
42134;SDS011;28312;43.460;11.810;2024-03-23T05:42:05;4.93;;;3.88;;
42134;SDS011;28312;43.460;11.810;2024-03-23T05:46:07;4.13;;;3.22;;
42134;SDS011;28312;43.460;11.810;2024-03-23T05:50:10;4.93;;;3.38;;
42134;SDS011;28312;43.460;11.810;2024-03-23T05:54:14;3.45;;;2.75;;
42134;SDS011;28312;43.460;11.810;2024-03-23T05:58:17;5.75;;;3.92;;
42134;SDS011;28312;43.460;11.810;2024-03-23T06:02:23;5.18;;;2.90;;
42134;SDS011;28312;43.460;11.810;2024-03-23T06:06:26;5.85;;;3.55;;
42134;SDS011;28312;43.460;11.810;2024-03-23T06:10:28;4.60;;;2.72;;
42134;SDS011;28312;43.460;11.810;2024-03-23T06:14:31;5.82;;;3.85;;
42134;SDS011;28312;43.460;11.810;2024-03-23T06:18:34;5.22;;;3.83;;
42134;SDS011;28312;43.460;11.810;2024-03-23T06:22:36;7.57;;;3.42;;
42134;SDS011;28312;43.460;11.810;2024-03-23T06:26:39;11.23;;;6.55;;
42134;SDS011;28312;43.460;11.810;2024-03-23T06:30:41;10.95;;;6.10;;
42134;SDS011;28312;43.460;11.810;2024-03-23T06:34:44;9.75;;;6.25;;
42134;SDS011;28312;43.460;11.810;2024-03-23T06:38:47;7.50;;;5.53;;
42134;SDS011;28312;43.460;11.810;2024-03-23T06:42:49;6.85;;;3.67;;
42134;SDS011;28312;43.460;11.810;2024-03-23T06:46:51;5.85;;;4.72;;
42134;SDS011;28312;43.460;11.810;2024-03-23T06:50:58;4.65;;;3.83;;
42134;SDS011;28312;43.460;11.810;2024-03-23T06:55:01;7.55;;;3.83;;
42134;SDS011;28312;43.460;11.810;2024-03-23T06:59:07;11.05;;;6.03;;
42134;SDS011;28312;43.460;11.810;2024-03-23T07:03:09;8.25;;;5.03;;
42134;SDS011;28312;43.460;11.810;2024-03-23T07:07:11;11.57;;;6.68;;
42134;SDS011;28312;43.460;11.810;2024-03-23T07:11:23;12.90;;;6.85;;
42134;SDS011;28312;43.460;11.810;2024-03-23T07:15:26;8.73;;;6.53;;
42134;SDS011;28312;43.460;11.810;2024-03-23T07:19:29;8.80;;;5.53;;
42134;SDS011;28312;43.460;11.810;2024-03-23T07:23:31;8.95;;;6.00;;
42134;SDS011;28312;43.460;11.810;2024-03-23T07:27:34;9.35;;;6.43;;
42134;SDS011;28312;43.460;11.810;2024-03-23T07:31:36;12.88;;;6.93;;
42134;SDS011;28312;43.460;11.810;2024-03-23T07:35:40;9.25;;;5.80;;
42134;SDS011;28312;43.460;11.810;2024-03-23T07:39:43;8.38;;;5.47;;
42134;SDS011;28312;43.460;11.810;2024-03-23T07:43:47;7.82;;;5.30;;
42134;SDS011;28312;43.460;11.810;2024-03-23T07:47:50;10.25;;;5.85;;
42134;SDS011;28312;43.460;11.810;2024-03-23T07:51:52;10.98;;;7.00;;
42134;SDS011;28312;43.460;11.810;2024-03-23T07:55:55;8.15;;;5.65;;
42134;SDS011;28312;43.460;11.810;2024-03-23T08:00:08;8.50;;;6.25;;
42134;SDS011;28312;43.460;11.810;2024-03-23T08:04:11;10.65;;;6.57;;
42134;SDS011;28312;43.460;11.810;2024-03-23T08:08:13;11.18;;;7.82;;
42134;SDS011;28312;43.460;11.810;2024-03-23T08:12:17;7.68;;;5.80;;
42134;SDS011;28312;43.460;11.810;2024-03-23T08:16:20;9.38;;;6.70;;
42134;SDS011;28312;43.460;11.810;2024-03-23T08:20:23;12.68;;;7.55;;
42134;SDS011;28312;43.460;11.810;2024-03-23T08:24:26;5.60;;;4.28;;
42134;SDS011;28312;43.460;11.810;2024-03-23T08:28:31;8.52;;;6.65;;
42134;SDS011;28312;43.460;11.810;2024-03-23T08:32:33;7.95;;;6.18;;
42134;SDS011;28312;43.460;11.810;2024-03-23T08:36:36;7.40;;;6.47;;
42134;SDS011;28312;43.460;11.810;2024-03-23T08:40:41;11.18;;;8.93;;
42134;SDS011;28312;43.460;11.810;2024-03-23T08:44:43;11.77;;;7.55;;
42134;SDS011;28312;43.460;11.810;2024-03-23T08:48:48;11.10;;;7.88;;
42134;SDS011;28312;43.460;11.810;2024-03-23T08:52:50;11.00;;;7.97;;
42134;SDS011;28312;43.460;11.810;2024-03-23T08:56:53;7.38;;;5.68;;
42134;SDS011;28312;43.460;11.810;2024-03-23T09:00:56;7.50;;;5.38;;
42134;SDS011;28312;43.460;11.810;2024-03-23T09:05:04;9.20;;;5.88;;
42134;SDS011;28312;43.460;11.810;2024-03-23T09:09:08;8.55;;;5.55;;
42134;SDS011;28312;43.460;11.810;2024-03-23T09:13:10;7.05;;;4.57;;
42134;SDS011;28312;43.460;11.810;2024-03-23T09:17:12;5.82;;;4.63;;
42134;SDS011;28312;43.460;11.810;2024-03-23T09:21:15;7.38;;;4.25;;
42134;SDS011;28312;43.460;11.810;2024-03-23T09:25:18;6.25;;;4.25;;
42134;SDS011;28312;43.460;11.810;2024-03-23T09:29:20;6.25;;;4.50;;
42134;SDS011;28312;43.460;11.810;2024-03-23T09:33:23;7.18;;;3.95;;
42134;SDS011;28312;43.460;11.810;2024-03-23T09:37:25;5.28;;;3.85;;
42134;SDS011;28312;43.460;11.810;2024-03-23T09:41:29;4.75;;;3.50;;
42134;SDS011;28312;43.460;11.810;2024-03-23T09:45:32;6.50;;;2.80;;
42134;SDS011;28312;43.460;11.810;2024-03-23T09:49:38;5.30;;;2.95;;
42134;SDS011;28312;43.460;11.810;2024-03-23T09:53:43;3.22;;;2.13;;
42134;SDS011;28312;43.460;11.810;2024-03-23T09:57:45;8.93;;;2.33;;
42134;SDS011;28312;43.460;11.810;2024-03-23T10:01:48;3.03;;;1.95;;
42134;SDS011;28312;43.460;11.810;2024-03-23T10:06:01;3.28;;;1.92;;
42134;SDS011;28312;43.460;11.810;2024-03-23T10:10:10;4.43;;;2.20;;
42134;SDS011;28312;43.460;11.810;2024-03-23T10:14:12;3.13;;;1.95;;
42134;SDS011;28312;43.460;11.810;2024-03-23T10:18:31;5.30;;;2.08;;
42134;SDS011;28312;43.460;11.810;2024-03-23T10:22:38;3.00;;;1.77;;
42134;SDS011;28312;43.460;11.810;2024-03-23T10:26:41;4.18;;;2.55;;
42134;SDS011;28312;43.460;11.810;2024-03-23T10:30:43;3.63;;;1.83;;
42134;SDS011;28312;43.460;11.810;2024-03-23T10:34:46;3.45;;;2.08;;
42134;SDS011;28312;43.460;11.810;2024-03-23T10:38:49;4.10;;;1.83;;
42134;SDS011;28312;43.460;11.810;2024-03-23T10:42:53;6.78;;;1.80;;
42134;SDS011;28312;43.460;11.810;2024-03-23T10:47:01;2.85;;;1.83;;
42134;SDS011;28312;43.460;11.810;2024-03-23T10:51:06;2.30;;;1.73;;
42134;SDS011;28312;43.460;11.810;2024-03-23T10:55:10;4.13;;;2.72;;
42134;SDS011;28312;43.460;11.810;2024-03-23T10:59:13;4.00;;;1.92;;
42134;SDS011;28312;43.460;11.810;2024-03-23T11:07:37;6.90;;;1.60;;
42134;SDS011;28312;43.460;11.810;2024-03-23T11:11:40;2.50;;;1.70;;
42134;SDS011;28312;43.460;11.810;2024-03-23T11:15:45;2.80;;;1.67;;
42134;SDS011;28312;43.460;11.810;2024-03-23T11:19:58;3.63;;;2.03;;
42134;SDS011;28312;43.460;11.810;2024-03-23T11:24:14;3.85;;;1.98;;
42134;SDS011;28312;43.460;11.810;2024-03-23T11:28:16;2.42;;;1.42;;
42134;SDS011;28312;43.460;11.810;2024-03-23T11:32:19;2.03;;;1.15;;
42134;SDS011;28312;43.460;11.810;2024-03-23T11:36:22;2.75;;;1.50;;
42134;SDS011;28312;43.460;11.810;2024-03-23T11:40:25;2.15;;;1.23;;
42134;SDS011;28312;43.460;11.810;2024-03-23T11:44:28;2.30;;;1.10;;
42134;SDS011;28312;43.460;11.810;2024-03-23T11:48:30;1.80;;;1.10;;
42134;SDS011;28312;43.460;11.810;2024-03-23T11:52:33;2.85;;;1.65;;
42134;SDS011;28312;43.460;11.810;2024-03-23T11:56:36;2.17;;;1.50;;
42134;SDS011;28312;43.460;11.810;2024-03-23T12:00:38;2.03;;;1.30;;
42134;SDS011;28312;43.460;11.810;2024-03-23T12:04:42;2.30;;;1.30;;
42134;SDS011;28312;43.460;11.810;2024-03-23T12:08:44;2.33;;;1.58;;
42134;SDS011;28312;43.460;11.810;2024-03-23T12:13:08;3.70;;;2.10;;
42134;SDS011;28312;43.460;11.810;2024-03-23T12:17:13;3.67;;;2.10;;
42134;SDS011;28312;43.460;11.810;2024-03-23T12:21:17;2.92;;;1.63;;
42134;SDS011;28312;43.460;11.810;2024-03-23T12:25:20;2.78;;;1.50;;
42134;SDS011;28312;43.460;11.810;2024-03-23T12:29:22;2.70;;;1.60;;
42134;SDS011;28312;43.460;11.810;2024-03-23T12:33:25;2.53;;;1.65;;
42134;SDS011;28312;43.460;11.810;2024-03-23T12:37:27;2.15;;;1.38;;
42134;SDS011;28312;43.460;11.810;2024-03-23T12:41:30;6.18;;;1.80;;
42134;SDS011;28312;43.460;11.810;2024-03-23T12:45:32;3.88;;;2.40;;
42134;SDS011;28312;43.460;11.810;2024-03-23T12:49:35;3.63;;;1.50;;
42134;SDS011;28312;43.460;11.810;2024-03-23T12:53:37;2.63;;;1.63;;
42134;SDS011;28312;43.460;11.810;2024-03-23T12:57:40;3.33;;;1.50;;
42134;SDS011;28312;43.460;11.810;2024-03-23T13:01:43;2.47;;;1.38;;
42134;SDS011;28312;43.460;11.810;2024-03-23T13:05:51;3.78;;;1.73;;
42134;SDS011;28312;43.460;11.810;2024-03-23T13:09:54;1.70;;;1.10;;
42134;SDS011;28312;43.460;11.810;2024-03-23T13:13:58;2.47;;;1.40;;
42134;SDS011;28312;43.460;11.810;2024-03-23T13:18:00;3.20;;;1.77;;
42134;SDS011;28312;43.460;11.810;2024-03-23T13:22:03;3.80;;;1.40;;
42134;SDS011;28312;43.460;11.810;2024-03-23T13:26:05;2.55;;;1.80;;
42134;SDS011;28312;43.460;11.810;2024-03-23T13:30:09;3.40;;;1.60;;
42134;SDS011;28312;43.460;11.810;2024-03-23T13:34:12;2.55;;;1.70;;
42134;SDS011;28312;43.460;11.810;2024-03-23T13:38:16;2.95;;;1.60;;
42134;SDS011;28312;43.460;11.810;2024-03-23T13:42:22;2.10;;;1.17;;
42134;SDS011;28312;43.460;11.810;2024-03-23T13:46:27;3.00;;;1.43;;
42134;SDS011;28312;43.460;11.810;2024-03-23T13:50:29;4.07;;;1.83;;
42134;SDS011;28312;43.460;11.810;2024-03-23T13:54:32;2.63;;;1.67;;
42134;SDS011;28312;43.460;11.810;2024-03-23T13:58:34;2.38;;;1.75;;
42134;SDS011;28312;43.460;11.810;2024-03-23T14:02:37;2.80;;;1.90;;
42134;SDS011;28312;43.460;11.810;2024-03-23T14:06:39;2.35;;;1.58;;
42134;SDS011;28312;43.460;11.810;2024-03-23T14:10:43;2.67;;;1.58;;
42134;SDS011;28312;43.460;11.810;2024-03-23T14:14:46;2.60;;;1.70;;
42134;SDS011;28312;43.460;11.810;2024-03-23T14:18:49;14.82;;;8.32;;
42134;SDS011;28312;43.460;11.810;2024-03-23T14:22:52;3.83;;;2.22;;
42134;SDS011;28312;43.460;11.810;2024-03-23T14:26:56;3.13;;;1.83;;
42134;SDS011;28312;43.460;11.810;2024-03-23T14:30:58;2.35;;;1.50;;
42134;SDS011;28312;43.460;11.810;2024-03-23T14:35:01;2.05;;;1.27;;
42134;SDS011;28312;43.460;11.810;2024-03-23T14:39:04;2.67;;;1.52;;
42134;SDS011;28312;43.460;11.810;2024-03-23T14:43:07;2.03;;;1.20;;
42134;SDS011;28312;43.460;11.810;2024-03-23T14:47:09;2.78;;;1.50;;
42134;SDS011;28312;43.460;11.810;2024-03-23T14:51:12;3.72;;;1.50;;
42134;SDS011;28312;43.460;11.810;2024-03-23T14:55:15;2.08;;;1.27;;
42134;SDS011;28312;43.460;11.810;2024-03-23T14:59:18;2.92;;;1.05;;
42134;SDS011;28312;43.460;11.810;2024-03-23T15:03:22;3.15;;;1.33;;
42134;SDS011;28312;43.460;11.810;2024-03-23T15:07:25;4.85;;;2.60;;
42134;SDS011;28312;43.460;11.810;2024-03-23T15:11:27;2.47;;;1.58;;
42134;SDS011;28312;43.460;11.810;2024-03-23T15:15:30;2.50;;;1.50;;
42134;SDS011;28312;43.460;11.810;2024-03-23T15:19:32;2.13;;;1.27;;
42134;SDS011;28312;43.460;11.810;2024-03-23T15:23:35;9.50;;;1.52;;
42134;SDS011;28312;43.460;11.810;2024-03-23T15:27:37;2.20;;;1.40;;
42134;SDS011;28312;43.460;11.810;2024-03-23T15:31:41;4.68;;;1.73;;
42134;SDS011;28312;43.460;11.810;2024-03-23T15:35:45;3.72;;;1.27;;
42134;SDS011;28312;43.460;11.810;2024-03-23T15:39:47;3.67;;;1.83;;
42134;SDS011;28312;43.460;11.810;2024-03-23T15:43:49;2.92;;;1.50;;
42134;SDS011;28312;43.460;11.810;2024-03-23T15:47:52;2.97;;;1.50;;
42134;SDS011;28312;43.460;11.810;2024-03-23T15:51:55;2.92;;;1.40;;
42134;SDS011;28312;43.460;11.810;2024-03-23T15:55:59;3.85;;;1.60;;
42134;SDS011;28312;43.460;11.810;2024-03-23T16:00:03;2.50;;;1.35;;
42134;SDS011;28312;43.460;11.810;2024-03-23T16:04:15;3.92;;;1.48;;
42134;SDS011;28312;43.460;11.810;2024-03-23T16:08:17;3.97;;;1.42;;
42134;SDS011;28312;43.460;11.810;2024-03-23T16:12:20;3.05;;;1.90;;
42134;SDS011;28312;43.460;11.810;2024-03-23T16:16:22;3.03;;;1.80;;
42134;SDS011;28312;43.460;11.810;2024-03-23T16:20:25;3.53;;;2.05;;
42134;SDS011;28312;43.460;11.810;2024-03-23T16:24:27;4.63;;;2.83;;
42134;SDS011;28312;43.460;11.810;2024-03-23T16:28:30;4.95;;;2.58;;
42134;SDS011;28312;43.460;11.810;2024-03-23T16:32:35;4.85;;;2.58;;
42134;SDS011;28312;43.460;11.810;2024-03-23T16:36:39;4.25;;;2.63;;
42134;SDS011;28312;43.460;11.810;2024-03-23T16:40:41;3.75;;;1.95;;
42134;SDS011;28312;43.460;11.810;2024-03-23T16:44:43;3.17;;;2.20;;
42134;SDS011;28312;43.460;11.810;2024-03-23T16:48:46;3.22;;;1.95;;
42134;SDS011;28312;43.460;11.810;2024-03-23T16:52:48;3.40;;;2.30;;
42134;SDS011;28312;43.460;11.810;2024-03-23T16:56:51;4.07;;;2.10;;
42134;SDS011;28312;43.460;11.810;2024-03-23T17:00:53;2.53;;;1.70;;
42134;SDS011;28312;43.460;11.810;2024-03-23T17:04:58;4.43;;;2.47;;
42134;SDS011;28312;43.460;11.810;2024-03-23T17:09:01;6.00;;;2.95;;
42134;SDS011;28312;43.460;11.810;2024-03-23T17:13:04;2.78;;;2.13;;
42134;SDS011;28312;43.460;11.810;2024-03-23T17:17:07;4.43;;;2.58;;
42134;SDS011;28312;43.460;11.810;2024-03-23T17:21:09;7.00;;;3.22;;
42134;SDS011;28312;43.460;11.810;2024-03-23T17:25:12;4.97;;;2.85;;
42134;SDS011;28312;43.460;11.810;2024-03-23T17:29:14;4.90;;;2.60;;
42134;SDS011;28312;43.460;11.810;2024-03-23T17:33:17;7.45;;;3.17;;
42134;SDS011;28312;43.460;11.810;2024-03-23T17:37:20;7.22;;;4.18;;
42134;SDS011;28312;43.460;11.810;2024-03-23T17:41:25;8.73;;;3.90;;
42134;SDS011;28312;43.460;11.810;2024-03-23T17:45:29;10.88;;;5.60;;
42134;SDS011;28312;43.460;11.810;2024-03-23T17:49:31;7.00;;;4.38;;
42134;SDS011;28312;43.460;11.810;2024-03-23T17:53:40;5.90;;;3.88;;
42134;SDS011;28312;43.460;11.810;2024-03-23T17:57:42;8.60;;;4.15;;
42134;SDS011;28312;43.460;11.810;2024-03-23T18:01:45;8.23;;;3.85;;
42134;SDS011;28312;43.460;11.810;2024-03-23T18:05:48;6.80;;;3.42;;
42134;SDS011;28312;43.460;11.810;2024-03-23T18:09:50;6.35;;;3.38;;
42134;SDS011;28312;43.460;11.810;2024-03-23T18:13:52;5.07;;;3.63;;
42134;SDS011;28312;43.460;11.810;2024-03-23T18:17:56;5.50;;;3.60;;
42134;SDS011;28312;43.460;11.810;2024-03-23T18:21:58;4.80;;;2.70;;
42134;SDS011;28312;43.460;11.810;2024-03-23T18:26:00;8.18;;;4.13;;
42134;SDS011;28312;43.460;11.810;2024-03-23T18:30:04;5.68;;;3.83;;
42134;SDS011;28312;43.460;11.810;2024-03-23T18:34:07;8.85;;;3.63;;
42134;SDS011;28312;43.460;11.810;2024-03-23T18:38:09;5.22;;;3.85;;
42134;SDS011;28312;43.460;11.810;2024-03-23T18:42:12;7.07;;;3.60;;
42134;SDS011;28312;43.460;11.810;2024-03-23T18:46:16;7.15;;;3.50;;
42134;SDS011;28312;43.460;11.810;2024-03-23T18:50:18;7.22;;;4.38;;
42134;SDS011;28312;43.460;11.810;2024-03-23T18:54:21;10.13;;;4.68;;
42134;SDS011;28312;43.460;11.810;2024-03-23T18:58:24;4.85;;;2.85;;
42134;SDS011;28312;43.460;11.810;2024-03-23T19:02:26;3.88;;;2.90;;
42134;SDS011;28312;43.460;11.810;2024-03-23T19:06:29;4.68;;;2.80;;
42134;SDS011;28312;43.460;11.810;2024-03-23T19:10:31;7.20;;;3.72;;
42134;SDS011;28312;43.460;11.810;2024-03-23T19:14:34;7.20;;;4.88;;
42134;SDS011;28312;43.460;11.810;2024-03-23T19:18:36;6.05;;;4.30;;
42134;SDS011;28312;43.460;11.810;2024-03-23T19:22:39;5.10;;;3.28;;
42134;SDS011;28312;43.460;11.810;2024-03-23T19:26:41;6.70;;;4.70;;
42134;SDS011;28312;43.460;11.810;2024-03-23T19:30:53;6.05;;;3.83;;
42134;SDS011;28312;43.460;11.810;2024-03-23T19:34:55;6.97;;;3.83;;
42134;SDS011;28312;43.460;11.810;2024-03-23T19:38:58;8.45;;;3.70;;
42134;SDS011;28312;43.460;11.810;2024-03-23T19:43:01;8.27;;;3.38;;
42134;SDS011;28312;43.460;11.810;2024-03-23T19:47:04;7.18;;;3.90;;
42134;SDS011;28312;43.460;11.810;2024-03-23T19:51:06;5.70;;;3.83;;
42134;SDS011;28312;43.460;11.810;2024-03-23T19:55:09;9.40;;;5.25;;
42134;SDS011;28312;43.460;11.810;2024-03-23T19:59:11;5.72;;;3.65;;
42134;SDS011;28312;43.460;11.810;2024-03-23T20:03:13;7.80;;;3.92;;
42134;SDS011;28312;43.460;11.810;2024-03-23T20:07:16;13.43;;;5.05;;
42134;SDS011;28312;43.460;11.810;2024-03-23T20:11:22;11.68;;;7.03;;
42134;SDS011;28312;43.460;11.810;2024-03-23T20:15:28;9.13;;;6.00;;
42134;SDS011;28312;43.460;11.810;2024-03-23T20:19:30;14.07;;;8.25;;
42134;SDS011;28312;43.460;11.810;2024-03-23T20:23:34;9.50;;;6.85;;
42134;SDS011;28312;43.460;11.810;2024-03-23T20:27:39;9.02;;;6.25;;
42134;SDS011;28312;43.460;11.810;2024-03-23T20:31:41;8.88;;;5.57;;
42134;SDS011;28312;43.460;11.810;2024-03-23T20:35:47;12.48;;;7.53;;
42134;SDS011;28312;43.460;11.810;2024-03-23T20:39:52;14.38;;;6.53;;
42134;SDS011;28312;43.460;11.810;2024-03-23T20:43:56;9.85;;;6.07;;
42134;SDS011;28312;43.460;11.810;2024-03-23T20:47:59;16.67;;;6.03;;
42134;SDS011;28312;43.460;11.810;2024-03-23T20:52:01;11.32;;;5.50;;
42134;SDS011;28312;43.460;11.810;2024-03-23T20:56:04;9.27;;;5.15;;
42134;SDS011;28312;43.460;11.810;2024-03-23T21:00:06;12.60;;;5.70;;
42134;SDS011;28312;43.460;11.810;2024-03-23T21:04:10;5.97;;;4.03;;
42134;SDS011;28312;43.460;11.810;2024-03-23T21:08:13;9.73;;;4.82;;
42134;SDS011;28312;43.460;11.810;2024-03-23T21:12:15;7.57;;;5.00;;
42134;SDS011;28312;43.460;11.810;2024-03-23T21:16:18;11.30;;;5.35;;
42134;SDS011;28312;43.460;11.810;2024-03-23T21:20:20;6.80;;;4.43;;
42134;SDS011;28312;43.460;11.810;2024-03-23T21:24:24;9.55;;;5.65;;
42134;SDS011;28312;43.460;11.810;2024-03-23T21:28:27;9.50;;;4.97;;
42134;SDS011;28312;43.460;11.810;2024-03-23T21:32:30;6.90;;;4.20;;
42134;SDS011;28312;43.460;11.810;2024-03-23T21:36:33;7.40;;;4.15;;
42134;SDS011;28312;43.460;11.810;2024-03-23T21:40:36;8.63;;;5.20;;
42134;SDS011;28312;43.460;11.810;2024-03-23T21:44:39;7.68;;;4.50;;
42134;SDS011;28312;43.460;11.810;2024-03-23T21:48:41;8.70;;;3.58;;
42134;SDS011;28312;43.460;11.810;2024-03-23T21:52:44;6.35;;;3.72;;
42134;SDS011;28312;43.460;11.810;2024-03-23T21:56:46;7.43;;;5.22;;
42134;SDS011;28312;43.460;11.810;2024-03-23T22:00:49;8.95;;;5.13;;
42134;SDS011;28312;43.460;11.810;2024-03-23T22:04:51;9.95;;;5.75;;
42134;SDS011;28312;43.460;11.810;2024-03-23T22:08:54;12.35;;;5.38;;
42134;SDS011;28312;43.460;11.810;2024-03-23T22:12:57;11.30;;;6.38;;
42134;SDS011;28312;43.460;11.810;2024-03-23T22:17:01;13.48;;;5.60;;
42134;SDS011;28312;43.460;11.810;2024-03-23T22:21:04;9.73;;;5.70;;
42134;SDS011;28312;43.460;11.810;2024-03-23T22:25:06;12.35;;;6.35;;
42134;SDS011;28312;43.460;11.810;2024-03-23T22:29:09;6.63;;;4.45;;
42134;SDS011;28312;43.460;11.810;2024-03-23T22:33:12;12.55;;;5.82;;
42134;SDS011;28312;43.460;11.810;2024-03-23T22:37:15;9.50;;;5.13;;
42134;SDS011;28312;43.460;11.810;2024-03-23T22:41:18;9.90;;;5.38;;
42134;SDS011;28312;43.460;11.810;2024-03-23T22:45:21;8.00;;;5.38;;
42134;SDS011;28312;43.460;11.810;2024-03-23T22:49:23;11.10;;;5.70;;
42134;SDS011;28312;43.460;11.810;2024-03-23T22:53:26;7.35;;;4.95;;
42134;SDS011;28312;43.460;11.810;2024-03-23T22:57:29;9.07;;;5.68;;
42134;SDS011;28312;43.460;11.810;2024-03-23T23:01:33;14.88;;;6.38;;
42134;SDS011;28312;43.460;11.810;2024-03-23T23:05:36;9.25;;;4.22;;
42134;SDS011;28312;43.460;11.810;2024-03-23T23:09:39;4.95;;;3.15;;
42134;SDS011;28312;43.460;11.810;2024-03-23T23:13:41;8.82;;;3.35;;
42134;SDS011;28312;43.460;11.810;2024-03-23T23:17:44;5.70;;;4.13;;
42134;SDS011;28312;43.460;11.810;2024-03-23T23:21:47;8.95;;;5.38;;
42134;SDS011;28312;43.460;11.810;2024-03-23T23:25:50;6.05;;;3.95;;
42134;SDS011;28312;43.460;11.810;2024-03-23T23:29:54;12.80;;;5.15;;
42134;SDS011;28312;43.460;11.810;2024-03-23T23:33:57;9.52;;;4.50;;
42134;SDS011;28312;43.460;11.810;2024-03-23T23:38:00;11.63;;;6.07;;
42134;SDS011;28312;43.460;11.810;2024-03-23T23:42:03;6.90;;;5.13;;
42134;SDS011;28312;43.460;11.810;2024-03-23T23:46:06;9.20;;;5.47;;
42134;SDS011;28312;43.460;11.810;2024-03-23T23:50:09;6.35;;;4.00;;
42134;SDS011;28312;43.460;11.810;2024-03-23T23:54:12;6.07;;;4.30;;
42134;SDS011;28312;43.460;11.810;2024-03-23T23:58:15;8.48;;;5.35;;
